Centre, Alabama
Current Conditions -  °F | °C
As of 3:55 PM on Thursday 23 Oct 2014 (Local Time) from K4A9 Reporting Station
Clear Clear  
Wind Chill: 68°   Ceiling: Unl
Heat Index: 68°   Visibility: 10mi
Dew Point: 30°   Wind: 6mph
Humidity: 24%   Direction: 30°NNE
Pressure: 30.06"   Gusts: NA
Location:  34.15°N, 85.68°W
Report Text: K4A9 232055Z AUTO 03005KT 10SM CLR 20/M01 A3006 RMK AO2
Loading
Personal Weather Stations






























Interactive Weather Map
Tropical Storm Tracking
New forecast layout! Learn more

10-Day Weather Forecast

Advertisements
Track Severe Weather on mobile